Terminal Aerodrome Forecast
Issued by NWS

Home | Current Version | Previous Version | Text Only | Print | Product List | Glossary On
Versions: 1 2 3 4 5 6 7 8 9 10 11 12 13 14 15 16 17 18 19 20
949
FTUS45 KABQ 231748
TAFTCC
TAF
KTCC 231748Z 2318/2418 21022G32KT P6SM SKC
     FM232000 23035G48KT 5SM BLDU SCT015
     FM240200 25030G40KT P6SM SCT100
     FM241500 32033G45KT 6SM BLDU SCT015=

USA.gov is the U.S. government's official web portal to all federal, state and local government web resources and services.